Latest Weather Observations for Gold Coast Seaway

IDQ60901

Issued at 9:21 am EST Monday 20 February 2017 (issued every 10 minutes, with the page automatically refreshed every 10 minutes)

About weather observations | Map of Brisbane area stations | Latest observations for Brisbane area | Other Formats
Station Details ID: 040764 Name: GOLD COAST SEAWAY Lat: -27.94 Lon: 153.43 Height: 2.98 m
Data from the previous 72 hours. | See also: Recent months at Gold Coast Seaway
Date/Time
EST
Temp
°C
App
Temp
°C
Dew
Point
°C
Rel
Hum
%
Delta-T
°C
Wind Press
QNH
hPa
Press
MSL
hPa
Rain since
9am
mm
Dir  Spd
km/h
Gust
km/h
Spd
kts
Gust
kts
20/09:00am 25.6 28.3 20.6 74 3.3 SSE 7 9 4 5 1011.5 1011.5 4.2
20/08:30am 25.5 28.2 20.7 75 3.1 S 7 11 4 6 1011.3 1011.3 4.2
20/08:00am 24.3 28.3 20.6 80 2.4 CALM 0 0 0 0 1011.0 1011.0 4.2
20/07:30am 24.0 26.5 20.3 80 2.4 WNW 7 9 4 5 1010.6 1010.6 4.2
20/07:00am 23.4 25.5 20.2 82 2.1 W 9 11 5 6 1010.4 1010.4 4.2
20/06:30am 22.7 24.2 20.6 88 1.4 NW 13 17 7 9 1009.9 1009.9 4.2
20/06:00am 21.7 24.4 21.4 98 0.2 WNW 9 9 5 5 1009.2 1009.2 4.2
20/05:30am 21.7 24.3 21.2 97 0.3 NNE 9 11 5 6 1008.8 1008.8 4.2
20/05:00am 21.9 26.3 21.4 97 0.3 CALM 0 0 0 0 1008.0 1008.0 4.2
20/04:30am 22.1 24.0 21.4 96 0.5 W 13 17 7 9 1008.0 1008.0 4.2
20/04:00am 22.0 24.0 21.5 97 0.3 W 13 15 7 8 1007.4 1007.4 4.2
20/03:30am 22.6 24.8 21.9 96 0.5 WNW 13 17 7 9 1007.0 1007.0 4.2
20/03:00am 22.8 24.6 21.8 94 0.7 N 15 17 8 9 1006.4 1006.4 4.2
20/02:30am 22.4 25.5 22.1 98 0.2 ESE 9 13 5 7 1006.4 1006.4 4.2
20/02:00am 22.2 25.3 21.0 93 0.8 SE 6 7 3 4 1007.3 1007.3 4.2
20/01:30am 22.3 24.8 21.1 93 0.8 SW 9 13 5 7 1007.5 1007.5 4.2
20/01:00am 22.4 24.5 21.0 92 0.9 SSW 11 17 6 9 1008.0 1008.0 4.2
20/12:30am 22.4 23.7 21.6 95 0.5 W 17 26 9 14 1008.4 1008.4 4.0
20/12:00am 22.6 25.5 22.4 99 0.1 WNW 11 13 6 7 1008.8 1008.8 4.0
 
Date/Time
EST
Temp
°C
App
Temp
°C
Dew
Point
°C
Rel
Hum
%
Delta-T
°C
Wind Press
QNH
hPa
Press
MSL
hPa
Rain since
9am
mm
Dir  Spd
km/h
Gust
km/h
Spd
kts
Gust
kts
19/11:30pm 22.7 24.3 21.5 93 0.8 WNW 15 19 8 10 1009.3 1009.3 2.6
19/11:00pm 23.1 25.2 21.7 92 0.9 WNW 13 19 7 10 1009.3 1009.3 2.0
19/10:30pm 23.0 26.0 22.0 94 0.7 W 9 13 5 7 1008.8 1008.8 2.0
19/10:00pm 23.2 25.7 22.5 96 0.5 W 13 15 7 8 1008.8 1008.8 1.8
19/09:30pm 23.4 25.4 22.2 93 0.8 WNW 15 19 8 10 1008.9 1008.9 1.6
19/09:00pm 23.3 25.9 21.9 92 0.9 NW 11 15 6 8 1008.9 1008.9 1.4
19/08:30pm 23.5 25.2 21.0 86 1.6 WNW 13 17 7 9 1008.5 1008.5 1.4
19/08:00pm 23.9 25.6 21.0 84 1.9 NW 13 20 7 11 1008.0 1008.0 1.2
19/07:30pm 24.1 25.3 20.6 81 2.3 NW 15 19 8 10 1007.6 1007.6 1.0
19/07:00pm 25.1 25.8 19.7 72 3.5 N 15 22 8 12 1007.8 1007.8 0.0
19/06:30pm 27.3 27.0 18.3 58 5.7 NW 17 20 9 11 1007.2 1007.2 0.0
19/06:00pm 27.5 28.3 19.0 59 5.5 WNW 13 17 7 9 1006.4 1006.4 0.0
19/05:30pm 26.6 27.6 22.2 77 3.0 N 20 28 11 15 1005.8 1005.8 0.0
19/05:00pm 26.5 27.6 22.3 78 2.8 N 20 28 11 15 1005.4 1005.4 0.0
19/04:30pm 26.6 27.3 22.2 77 3.0 N 22 30 12 16 1005.6 1005.6 0.0
19/04:00pm 26.6 25.8 22.4 78 2.8 N 30 33 16 18 1005.6 1005.6 0.0
19/03:30pm 26.9 26.7 22.1 75 3.2 N 26 30 14 16 1005.6 1005.6 0.0
19/03:00pm 27.4 27.4 22.4 74 3.4 N 26 30 14 16 1005.5 1005.5 0.0
19/02:30pm 27.9 28.3 22.4 72 3.7 NNE 24 30 13 16 1005.6 1005.6 0.0
19/02:00pm 28.5 28.8 23.0 72 3.8 NNE 26 28 14 15 1005.7 1005.7 0.0
19/01:30pm 28.5 28.9 22.5 70 4.1 NE 24 28 13 15 1005.9 1005.9 0.0
19/01:00pm 29.3 29.7 22.5 67 4.6 NNE 24 30 13 16 1006.1 1006.1 0.0
19/12:30pm 29.0 29.7 23.0 70 4.1 NE 24 28 13 15 1006.4 1006.4 0.0
19/12:00pm 28.4 28.5 21.9 68 4.4 NNE 24 30 13 16 1006.8 1006.8 0.0
19/11:30am 29.0 29.4 21.7 64 4.9 NE 22 26 12 14 1006.9 1006.9 0.0
19/11:00am 30.3 31.6 21.7 60 5.8 NE 17 17 9 9 1007.1 1007.1 0.0
19/10:30am 29.8 31.4 19.2 53 6.9 N 9 13 5 7 1007.3 1007.3 0.0
19/10:00am 28.5 29.0 19.2 57 6.0 WNW 15 19 8 10 1007.6 1007.6 0.0
19/09:30am 27.1 27.6 19.2 62 5.1 NW 15 19 8 10 1007.7 1007.7 0.0
19/09:00am 26.5 26.6 20.3 68 4.1 WNW 20 26 11 14 1008.0 1008.0 0.0
19/08:30am 24.3 23.7 19.8 76 2.9 WNW 22 28 12 15 1008.1 1008.1 0.0
19/08:00am 24.0 23.9 19.9 78 2.6 NW 20 26 11 14 1008.0 1008.0 0.0
19/07:30am 23.7 23.5 19.8 79 2.5 NW 20 24 11 13 1008.1 1008.1 0.0
19/07:00am 23.5 23.4 20.0 81 2.3 NW 20 28 11 15 1008.2 1008.2 0.0
19/06:30am 23.7 23.5 19.8 79 2.5 NNW 20 26 11 14 1008.0 1008.0 0.0
19/06:00am 24.1 25.4 20.8 82 2.2 NNW 15 20 8 11 1007.7 1007.7 0.0
19/05:30am 24.2 25.5 20.9 82 2.2 N 15 19 8 10 1007.5 1007.5 0.0
19/05:00am 24.1 25.7 19.2 74 3.1 N 9 11 5 6 1007.2 1007.2 0.0
19/04:30am 24.8 25.4 18.5 68 4.0 WNW 13 15 7 8 1007.6 1007.6 0.0
19/04:00am 24.7 23.0 18.2 67 4.1 WNW 24 30 13 16 1007.9 1007.9 0.0
19/03:30am 25.1 26.7 20.8 77 2.8 NNW 13 17 7 9 1008.1 1008.1 0.0
19/03:00am 25.3 26.6 20.8 76 3.0 NW 15 19 8 10 1008.2 1008.2 0.0
19/02:30am 25.2 26.2 21.1 78 2.7 NNW 17 22 9 12 1008.5 1008.5 0.0
19/02:00am 24.9 27.2 21.4 81 2.3 NNW 11 17 6 9 1008.6 1008.6 0.0
19/01:30am 24.7 27.2 21.8 84 1.9 NNW 11 13 6 7 1008.8 1008.8 0.0
19/01:00am 25.9 27.7 21.8 78 2.7 NNW 15 24 8 13 1009.0 1009.0 0.0
19/12:30am 25.5 27.0 21.2 77 2.8 N 15 20 8 11 1008.8 1008.8 0.0
19/12:00am 25.3 26.4 21.2 78 2.7 N 17 24 9 13 1008.9 1008.9 0.0
 
Date/Time
EST
Temp
°C
App
Temp
°C
Dew
Point
°C
Rel
Hum
%
Delta-T
°C
Wind Press
QNH
hPa
Press
MSL
hPa
Rain since
9am
mm
Dir  Spd
km/h
Gust
km/h
Spd
kts
Gust
kts
18/11:30pm 25.4 25.4 21.7 80 2.5 N 24 28 13 15 1009.0 1009.0 0.0
18/11:00pm 25.3 25.9 21.4 79 2.6 N 20 26 11 14 1009.1 1009.1 0.0
18/10:30pm 25.2 26.5 20.9 77 2.8 N 15 19 8 10 1009.1 1009.1 0.0
18/10:00pm 25.1 26.5 21.0 78 2.7 NNW 15 19 8 10 1009.0 1009.0 0.0
18/09:30pm 25.1 26.1 21.0 78 2.7 N 17 22 9 12 1008.6 1008.6 0.0
18/09:00pm 25.1 26.2 21.2 79 2.6 N 17 24 9 13 1008.4 1008.4 0.0
18/08:30pm 25.1 26.3 20.6 76 2.9 N 15 20 8 11 1008.8 1008.8 0.0
18/08:00pm 25.3 26.0 20.5 75 3.1 N 17 26 9 14 1008.8 1008.8 0.0
18/07:30pm 25.5 24.5 21.2 77 2.8 N 28 35 15 19 1008.2 1008.2 0.0
18/07:00pm 25.7 24.1 21.8 79 2.6 N 33 39 18 21 1007.6 1007.6 0.0
18/06:30pm 25.7 23.8 21.4 77 2.8 N 33 41 18 22 1007.4 1007.4 0.0
18/06:00pm 26.1 23.9 20.7 72 3.6 NNE 33 39 18 21 1007.2 1007.2 0.0
18/05:30pm 26.7 23.8 20.8 70 3.9 NNE 37 43 20 23 1007.3 1007.3 0.0
18/05:00pm 27.2 24.7 20.8 68 4.2 NNE 35 41 19 22 1007.5 1007.5 0.0
18/04:30pm 27.5 24.2 20.1 64 4.8 NNE 37 43 20 23 1007.9 1007.9 0.0
18/04:00pm 28.1 24.5 20.1 62 5.2 NNE 39 44 21 24 1008.0 1008.0 0.0
18/03:30pm 28.6 24.5 19.2 56 6.1 NNE 39 44 21 24 1008.2 1008.2 0.0
18/03:00pm 28.9 24.6 19.5 57 6.1 NNE 41 46 22 25 1008.3 1008.3 0.0
18/02:30pm 29.4 25.7 20.0 57 6.2 NNE 39 44 21 24 1008.7 1008.7 0.0
18/02:00pm 29.3 25.7 19.3 55 6.5 NNE 37 43 20 23 1008.9 1008.9 0.0
18/01:30pm 28.3 25.3 19.8 60 5.5 NNE 35 41 19 22 1009.1 1009.1 0.0
18/01:00pm 29.0 26.4 19.6 57 6.1 NNE 32 35 17 19 1009.6 1009.6 0.0
18/12:30pm 30.7 29.3 21.2 57 6.4 NNE 30 33 16 18 1009.9 1009.9 0.0
18/12:00pm 29.9 29.0 20.7 57 6.1 NNE 26 30 14 16 1010.1 1010.1 0.0
18/11:30am 29.1 27.3 17.0 48 7.6 N 22 33 12 18 1010.4 1010.4 0.0
18/11:00am 29.4 27.6 17.9 50 7.3 N 24 32 13 17 1010.7 1010.7 0.0
18/10:30am 29.1 27.2 18.5 52 6.8 N 26 35 14 19 1011.3 1011.3 0.0
18/10:00am 28.6 27.1 19.5 58 5.9 N 26 35 14 19 1011.5 1011.5 0.0
18/09:30am 27.2 25.7 18.5 59 5.6 NNW 24 33 13 18 1011.8 1011.8 0.0
18/09:00am 26.3 25.3 18.9 63 4.7 NNW 22 32 12 17 1012.1 1012.1 0.0
18/08:30am 26.8 27.2 19.9 66 4.5 NNW 17 26 9 14 1012.1 1012.1 0.0
18/08:00am 25.9 26.2 19.5 68 4.1 NNW 17 22 9 12 1012.2 1012.2 0.0
18/07:30am 24.9 26.1 19.9 74 3.2 NNW 13 17 7 9 1012.1 1012.1 0.0
18/07:00am 23.6 24.7 19.7 79 2.5 NW 13 17 7 9 1012.0 1012.0 0.0
18/06:30am 23.6 23.9 19.5 78 2.6 NW 17 22 9 12 1011.9 1011.9 0.0
18/06:00am 24.0 24.7 19.7 77 2.8 NNW 15 20 8 11 1011.5 1011.5 0.0
18/05:30am 23.9 23.4 19.2 75 3.0 N 20 30 11 16 1010.7 1010.7 0.0
18/05:00am 24.1 23.4 19.6 76 2.9 NNE 22 26 12 14 1011.0 1011.0 0.0
18/04:30am 23.9 24.2 19.6 77 2.8 NNE 17 22 9 12 1010.9 1010.9 0.0
18/04:00am 23.4 24.3 19.3 78 2.6 NE 13 17 7 9 1011.1 1011.1 0.0
18/03:30am 22.5 23.9 18.7 79 2.4 E 9 11 5 6 1011.6 1011.6 0.0
18/03:00am 22.1 23.5 17.9 77 2.6 S 7 9 4 5 1012.5 1012.5 0.0
18/02:30am 22.4 25.1 17.8 75 2.9 CALM 0 2 0 1 1013.2 1013.2 0.0
18/02:00am 22.9 24.3 17.8 73 3.2 S 7 9 4 5 1013.7 1013.7 0.0
18/01:30am 23.4 24.6 18.3 73 3.2 SSW 9 13 5 7 1014.0 1014.0 0.0
18/01:00am 23.4 23.5 18.3 73 3.2 SW 15 19 8 10 1014.9 1014.9 0.0
18/12:30am 23.5 23.8 17.9 71 3.5 NNW 13 17 7 9 1013.6 1013.6 0.0
18/12:00am 23.4 23.1 17.4 69 3.7 NNW 15 19 8 10 1013.6 1013.6 0.0
 
Date/Time
EST
Temp
°C
App
Temp
°C
Dew
Point
°C
Rel
Hum
%
Delta-T
°C
Wind Press
QNH
hPa
Press
MSL
hPa
Rain since
9am
mm
Dir  Spd
km/h
Gust
km/h
Spd
kts
Gust
kts
17/11:30pm 23.4 23.7 17.8 71 3.5 NNW 13 17 7 9 1013.7 1013.7 0.0
17/11:00pm 23.5 23.9 18.2 72 3.3 NNW 13 19 7 10 1013.8 1013.8 0.0
17/10:30pm 23.8 24.3 18.4 72 3.4 NNW 13 20 7 11 1013.9 1013.9 0.0
17/10:00pm 23.8 24.1 18.0 70 3.6 NNW 13 17 7 9 1013.7 1013.7 0.0
17/09:30pm 24.2 23.7 17.7 67 4.1 N 17 26 9 14 1013.5 1013.5 0.0
17/09:00pm 24.6 23.1 18.5 69 3.9 NNE 24 28 13 15 1013.3 1013.3 0.0
17/08:30pm 24.7 23.7 18.9 70 3.7 NNE 22 26 12 14 1013.2 1013.2 0.0
17/08:00pm 24.7 23.8 19.1 71 3.6 NNE 22 28 12 15 1013.0 1013.0 0.0
17/07:30pm 24.8 23.6 18.3 67 4.1 NNE 22 26 12 14 1012.8 1012.8 0.0
17/07:00pm 24.8 23.5 19.0 70 3.7 NNE 24 28 13 15 1012.2 1012.2 0.0
17/06:30pm 25.1 23.3 18.8 68 4.0 NNE 26 30 14 16 1012.0 1012.0 0.0
17/06:00pm 25.6 23.8 18.8 66 4.3 NNE 26 32 14 17 1012.0 1012.0 0.0
17/05:30pm 26.2 24.6 19.1 65 4.6 NNE 26 32 14 17 1012.0 1012.0 0.0
17/05:00pm 26.8 25.3 19.4 64 4.8 NNE 26 30 14 16 1012.2 1012.2 0.0
17/04:30pm 27.0 24.8 18.8 60 5.3 NNE 28 32 15 17 1012.2 1012.2 0.0
17/04:00pm 27.5 25.4 19.0 59 5.5 NNE 28 33 15 18 1012.1 1012.1 0.0
17/03:30pm 28.0 25.9 19.0 58 5.8 NNE 28 33 15 18 1012.2 1012.2 0.0
17/03:00pm 28.1 25.7 19.1 58 5.8 NNE 30 32 16 17 1012.4 1012.4 0.0
17/02:30pm 28.4 26.0 19.1 57 6.0 NE 30 35 16 19 1012.6 1012.6 0.0
17/02:00pm 28.4 26.2 19.6 59 5.7 NE 30 33 16 18 1012.8 1012.8 0.0
17/01:30pm 28.2 25.9 19.4 59 5.7 NE 30 33 16 18 1013.1 1013.1 0.0
17/01:00pm 28.8 26.6 18.6 54 6.6 NE 28 32 15 17 1013.4 1013.4 0.0
17/12:30pm 28.5 26.4 18.9 56 6.2 NE 28 32 15 17 1013.7 1013.7 0.0
17/12:00pm 28.5 26.8 18.9 56 6.2 NE 26 30 14 16 1014.0 1014.0 0.0
17/11:30am 28.8 27.7 19.4 56 6.1 NE 24 28 13 15 1014.4 1014.4 0.0
17/11:00am 28.7 27.9 18.5 54 6.5 NE 20 26 11 14 1014.8 1014.8 0.0
17/10:30am 28.7 27.9 18.5 54 6.5 NE 20 24 11 13 1015.1 1015.1 0.0
17/10:00am 28.3 27.9 18.1 54 6.5 NE 17 20 9 11 1015.3 1015.3 0.0
17/09:30am 28.0 27.9 17.8 54 6.5 NE 15 17 8 9 1015.6 1015.6 0.0

Latest Capital City Observations: Canberra | Sydney | Melbourne | Brisbane | Adelaide | Perth | Hobart | Darwin

Other Formats:

Comma delimited format used in spreadsheet applications
http://www.bom.gov.au/fwo/IDQ60901/IDQ60901.94580.axf

JavaScript Object Notation format (JSON) in row-major order
http://www.bom.gov.au/fwo/IDQ60901/IDQ60901.94580.json